sensor_id;sensor_type;location;lat;lon;timestamp;pressure;altitude;pressure_sealevel;temperature;humidity
72024;BME280;59889;50.700;5.440;2022-08-01T00:01:15;100180.40;;;29.48;27.63
72024;BME280;59889;50.700;5.440;2022-08-01T00:03:41;100180.26;;;29.27;27.61
72024;BME280;59889;50.700;5.440;2022-08-01T00:06:07;100183.35;;;29.24;27.64
72024;BME280;59889;50.700;5.440;2022-08-01T00:08:32;100182.12;;;29.24;27.64
72024;BME280;59889;50.700;5.440;2022-08-01T00:10:58;100181.21;;;29.26;27.63
72024;BME280;59889;50.700;5.440;2022-08-01T00:13:28;100183.47;;;29.22;27.67
72024;BME280;59889;50.700;5.440;2022-08-01T00:15:49;100182.80;;;29.20;27.70
72024;BME280;59889;50.700;5.440;2022-08-01T00:18:15;100181.73;;;29.24;27.64
72024;BME280;59889;50.700;5.440;2022-08-01T00:20:41;100179.71;;;29.22;27.69
72024;BME280;59889;50.700;5.440;2022-08-01T00:23:07;100177.94;;;29.45;27.69
72024;BME280;59889;50.700;5.440;2022-08-01T00:25:33;100177.18;;;29.17;27.73
72024;BME280;59889;50.700;5.440;2022-08-01T00:27:58;100176.31;;;29.18;27.73
72024;BME280;59889;50.700;5.440;2022-08-01T00:30:25;100178.26;;;29.26;27.64
72024;BME280;59889;50.700;5.440;2022-08-01T00:32:50;100180.03;;;29.26;27.65
72024;BME280;59889;50.700;5.440;2022-08-01T00:35:16;100179.30;;;29.49;27.66
72024;BME280;59889;50.700;5.440;2022-08-01T00:37:52;100180.74;;;29.24;27.69
72024;BME280;59889;50.700;5.440;2022-08-01T00:40:08;100179.87;;;29.25;27.67
72024;BME280;59889;50.700;5.440;2022-08-01T00:42:34;100181.24;;;29.26;27.67
72024;BME280;59889;50.700;5.440;2022-08-01T00:44:59;100184.75;;;29.25;27.66
72024;BME280;59889;50.700;5.440;2022-08-01T00:47:25;100184.26;;;29.21;27.72
72024;BME280;59889;50.700;5.440;2022-08-01T00:49:51;100185.84;;;29.43;27.73
72024;BME280;59889;50.700;5.440;2022-08-01T00:52:17;100185.33;;;29.27;27.66
72024;BME280;59889;50.700;5.440;2022-08-01T00:54:43;100183.63;;;29.17;27.75
72024;BME280;59889;50.700;5.440;2022-08-01T00:57:09;100182.33;;;29.68;27.73
72024;BME280;59889;50.700;5.440;2022-08-01T00:59:35;100184.92;;;29.21;27.70
72024;BME280;59889;50.700;5.440;2022-08-01T01:02:01;100186.01;;;28.98;27.70
72024;BME280;59889;50.700;5.440;2022-08-01T01:04:26;100189.49;;;29.41;27.75
72024;BME280;59889;50.700;5.440;2022-08-01T01:06:59;100193.74;;;29.20;27.72
72024;BME280;59889;50.700;5.440;2022-08-01T01:09:27;100190.17;;;29.27;27.64
72024;BME280;59889;50.700;5.440;2022-08-01T01:11:49;100189.08;;;29.27;27.66
72024;BME280;59889;50.700;5.440;2022-08-01T01:14:15;100187.37;;;29.22;27.70
72024;BME280;59889;50.700;5.440;2022-08-01T01:16:37;100186.36;;;29.42;27.75
72024;BME280;59889;50.700;5.440;2022-08-01T01:19:02;100186.22;;;29.20;27.74
72024;BME280;59889;50.700;5.440;2022-08-01T01:21:35;100183.60;;;29.19;27.75
72024;BME280;59889;50.700;5.440;2022-08-01T01:24:00;100186.53;;;29.15;27.80
72024;BME280;59889;50.700;5.440;2022-08-01T01:26:29;100182.18;;;29.15;27.79
72024;BME280;59889;50.700;5.440;2022-08-01T01:29:00;100178.79;;;29.42;27.76
72024;BME280;59889;50.700;5.440;2022-08-01T01:31:12;100179.47;;;29.15;27.79
72024;BME280;59889;50.700;5.440;2022-08-01T01:33:37;100179.99;;;29.12;27.82
72024;BME280;59889;50.700;5.440;2022-08-01T01:36:05;100176.10;;;29.43;27.74
72024;BME280;59889;50.700;5.440;2022-08-01T01:38:33;100171.13;;;29.33;27.84
72024;BME280;59889;50.700;5.440;2022-08-01T01:40:55;100170.60;;;29.13;27.82
72024;BME280;59889;50.700;5.440;2022-08-01T01:43:21;100170.66;;;29.22;27.72
72024;BME280;59889;50.700;5.440;2022-08-01T01:45:47;100174.26;;;29.42;27.76
72024;BME280;59889;50.700;5.440;2022-08-01T01:48:14;100174.87;;;29.46;27.73
72024;BME280;59889;50.700;5.440;2022-08-01T01:50:38;100171.98;;;29.44;27.74
72024;BME280;59889;50.700;5.440;2022-08-01T01:53:04;100170.78;;;29.40;27.80
72024;BME280;59889;50.700;5.440;2022-08-01T01:55:30;100170.63;;;29.63;27.82
72024;BME280;59889;50.700;5.440;2022-08-01T01:57:56;100173.08;;;29.12;27.86
72024;BME280;59889;50.700;5.440;2022-08-01T02:00:21;100170.45;;;29.40;27.82
72024;BME280;59889;50.700;5.440;2022-08-01T02:02:48;100165.18;;;29.12;27.86
72024;BME280;59889;50.700;5.440;2022-08-01T02:05:13;100161.54;;;29.29;27.92
72024;BME280;59889;50.700;5.440;2022-08-01T02:07:39;100156.04;;;29.01;27.97
72024;BME280;59889;50.700;5.440;2022-08-01T02:10:06;100155.52;;;29.06;27.90
72024;BME280;59889;50.700;5.440;2022-08-01T02:12:34;100154.73;;;29.09;27.88
72024;BME280;59889;50.700;5.440;2022-08-01T02:14:56;100154.43;;;29.06;27.90
72024;BME280;59889;50.700;5.440;2022-08-01T02:17:23;100152.17;;;29.37;27.84
72024;BME280;59889;50.700;5.440;2022-08-01T02:19:48;100147.93;;;29.11;27.85
72024;BME280;59889;50.700;5.440;2022-08-01T02:22:18;100147.61;;;29.12;27.84
72024;BME280;59889;50.700;5.440;2022-08-01T02:24:42;100146.73;;;29.40;27.80
72024;BME280;59889;50.700;5.440;2022-08-01T02:27:08;100144.12;;;29.40;27.79
72024;BME280;59889;50.700;5.440;2022-08-01T02:29:37;100143.13;;;29.15;27.79
72024;BME280;59889;50.700;5.440;2022-08-01T02:31:58;100142.08;;;29.13;27.81
72024;BME280;59889;50.700;5.440;2022-08-01T02:34:25;100141.02;;;29.04;27.90
72024;BME280;59889;50.700;5.440;2022-08-01T02:36:49;100141.28;;;29.08;27.86
72024;BME280;59889;50.700;5.440;2022-08-01T02:39:17;100142.83;;;29.35;27.84
72024;BME280;59889;50.700;5.440;2022-08-01T02:41:42;100144.06;;;29.35;27.82
72024;BME280;59889;50.700;5.440;2022-08-01T02:44:08;100146.05;;;29.07;27.84
72024;BME280;59889;50.700;5.440;2022-08-01T02:46:37;100148.01;;;29.36;27.79
72024;BME280;59889;50.700;5.440;2022-08-01T02:49:00;100149.23;;;29.10;27.81
72024;BME280;59889;50.700;5.440;2022-08-01T02:51:25;100149.61;;;29.07;27.83
72024;BME280;59889;50.700;5.440;2022-08-01T02:53:51;100152.70;;;29.09;27.81
72024;BME280;59889;50.700;5.440;2022-08-01T02:56:17;100154.89;;;29.12;27.77
72024;BME280;59889;50.700;5.440;2022-08-01T02:58:42;100154.50;;;29.36;27.73
72024;BME280;59889;50.700;5.440;2022-08-01T03:01:08;100154.67;;;29.08;27.79
72024;BME280;59889;50.700;5.440;2022-08-01T03:03:33;100154.58;;;29.01;27.85
72024;BME280;59889;50.700;5.440;2022-08-01T03:06:00;100155.98;;;29.22;27.90
72024;BME280;59889;50.700;5.440;2022-08-01T03:08:25;100156.88;;;29.04;27.83
72024;BME280;59889;50.700;5.440;2022-08-01T03:10:52;100157.86;;;29.07;27.79
72024;BME280;59889;50.700;5.440;2022-08-01T03:13:17;100158.04;;;29.09;27.77
72024;BME280;59889;50.700;5.440;2022-08-01T03:15:43;100157.11;;;29.07;27.79
72024;BME280;59889;50.700;5.440;2022-08-01T03:18:09;100159.03;;;29.00;27.85
72024;BME280;59889;50.700;5.440;2022-08-01T03:20:35;100165.34;;;29.51;27.82
72024;BME280;59889;50.700;5.440;2022-08-01T03:23:03;100161.35;;;29.06;27.78
72024;BME280;59889;50.700;5.440;2022-08-01T03:25:27;100159.91;;;29.00;27.85
72024;BME280;59889;50.700;5.440;2022-08-01T03:27:55;100159.93;;;29.05;27.81
72024;BME280;59889;50.700;5.440;2022-08-01T03:30:17;100161.57;;;29.24;27.83
72024;BME280;59889;50.700;5.440;2022-08-01T03:32:43;100163.76;;;29.01;27.84
72024;BME280;59889;50.700;5.440;2022-08-01T03:35:09;100163.80;;;29.28;27.80
72024;BME280;59889;50.700;5.440;2022-08-01T03:37:40;100164.09;;;29.23;27.86
72024;BME280;59889;50.700;5.440;2022-08-01T03:40:06;100167.08;;;29.51;27.79
72024;BME280;59889;50.700;5.440;2022-08-01T03:42:33;100165.06;;;29.00;27.82
72024;BME280;59889;50.700;5.440;2022-08-01T03:44:56;100164.18;;;29.47;27.83
72024;BME280;59889;50.700;5.440;2022-08-01T03:47:19;100163.59;;;29.03;27.77
72024;BME280;59889;50.700;5.440;2022-08-01T03:49:45;100168.71;;;29.20;27.86
72024;BME280;59889;50.700;5.440;2022-08-01T03:52:11;100168.29;;;29.22;27.83
72024;BME280;59889;50.700;5.440;2022-08-01T03:54:40;100165.43;;;29.22;27.84
72024;BME280;59889;50.700;5.440;2022-08-01T03:57:02;100163.85;;;29.22;27.81
72024;BME280;59889;50.700;5.440;2022-08-01T03:59:28;100165.32;;;29.23;27.83
72024;BME280;59889;50.700;5.440;2022-08-01T04:01:54;100162.93;;;28.99;27.81
72024;BME280;59889;50.700;5.440;2022-08-01T04:04:19;100166.74;;;28.98;27.83
72024;BME280;59889;50.700;5.440;2022-08-01T04:06:45;100166.23;;;29.20;27.84
72024;BME280;59889;50.700;5.440;2022-08-01T04:09:11;100165.25;;;29.01;27.79
72024;BME280;59889;50.700;5.440;2022-08-01T04:11:37;100163.56;;;29.25;27.77
72024;BME280;59889;50.700;5.440;2022-08-01T04:14:03;100166.44;;;29.20;27.83
72024;BME280;59889;50.700;5.440;2022-08-01T04:16:28;100169.90;;;29.39;27.87
72024;BME280;59889;50.700;5.440;2022-08-01T04:18:54;100172.18;;;29.20;27.82
72024;BME280;59889;50.700;5.440;2022-08-01T04:21:23;100169.98;;;28.94;27.83
72024;BME280;59889;50.700;5.440;2022-08-01T04:23:46;100172.51;;;29.18;27.83
72024;BME280;59889;50.700;5.440;2022-08-01T04:26:13;100176.72;;;29.15;27.89
72024;BME280;59889;50.700;5.440;2022-08-01T04:28:39;100180.66;;;28.89;27.86
72024;BME280;59889;50.700;5.440;2022-08-01T04:31:07;100181.44;;;29.18;27.82
72024;BME280;59889;50.700;5.440;2022-08-01T04:33:30;100182.80;;;29.15;27.85
72024;BME280;59889;50.700;5.440;2022-08-01T04:35:57;100181.44;;;29.17;27.82
72024;BME280;59889;50.700;5.440;2022-08-01T04:38:25;100180.89;;;28.84;27.89
72024;BME280;59889;50.700;5.440;2022-08-01T04:40:48;100181.37;;;29.01;27.74
72024;BME280;59889;50.700;5.440;2022-08-01T04:43:13;100183.94;;;29.09;27.89
72024;BME280;59889;50.700;5.440;2022-08-01T04:45:39;100186.96;;;29.23;27.73
72024;BME280;59889;50.700;5.440;2022-08-01T04:48:05;100185.61;;;29.12;27.85
72024;BME280;59889;50.700;5.440;2022-08-01T04:50:31;100189.37;;;28.83;27.89
72024;BME280;59889;50.700;5.440;2022-08-01T04:52:56;100192.63;;;29.14;27.84
72024;BME280;59889;50.700;5.440;2022-08-01T04:55:22;100190.87;;;28.87;27.85
72024;BME280;59889;50.700;5.440;2022-08-01T04:57:48;100193.51;;;28.84;27.86
72024;BME280;59889;50.700;5.440;2022-08-01T05:00:15;100197.20;;;29.09;27.85
72024;BME280;59889;50.700;5.440;2022-08-01T05:02:40;100197.97;;;29.07;27.88
72024;BME280;59889;50.700;5.440;2022-08-01T05:05:06;100197.03;;;28.92;27.77
72024;BME280;59889;50.700;5.440;2022-08-01T05:07:31;100195.29;;;28.86;27.82
72024;BME280;59889;50.700;5.440;2022-08-01T05:09:57;100195.73;;;29.15;27.79
72024;BME280;59889;50.700;5.440;2022-08-01T05:12:23;100196.49;;;29.08;27.89
72024;BME280;59889;50.700;5.440;2022-08-01T05:14:49;100199.47;;;28.92;27.87
72024;BME280;59889;50.700;5.440;2022-08-01T05:17:15;100200.79;;;29.11;27.94
72024;BME280;59889;50.700;5.440;2022-08-01T05:19:41;100204.49;;;29.04;28.03
72024;BME280;59889;50.700;5.440;2022-08-01T05:22:08;100206.81;;;28.85;27.98
72024;BME280;59889;50.700;5.440;2022-08-01T05:24:33;100206.28;;;29.04;28.02
72024;BME280;59889;50.700;5.440;2022-08-01T05:26:57;100207.46;;;29.10;27.95
72024;BME280;59889;50.700;5.440;2022-08-01T05:29:22;100207.62;;;29.09;27.95
72024;BME280;59889;50.700;5.440;2022-08-01T05:31:47;100209.62;;;28.82;27.96
72024;BME280;59889;50.700;5.440;2022-08-01T05:34:12;100211.60;;;29.27;28.02
72024;BME280;59889;50.700;5.440;2022-08-01T05:36:37;100215.01;;;29.05;27.98
72024;BME280;59889;50.700;5.440;2022-08-01T05:39:02;100214.23;;;28.91;27.84
72024;BME280;59889;50.700;5.440;2022-08-01T05:41:28;100214.21;;;28.90;27.85
72024;BME280;59889;50.700;5.440;2022-08-01T05:43:54;100213.17;;;29.32;27.91
72024;BME280;59889;50.700;5.440;2022-08-01T05:46:20;100216.16;;;28.85;27.94
72024;BME280;59889;50.700;5.440;2022-08-01T05:48:46;100216.04;;;28.85;27.95
72024;BME280;59889;50.700;5.440;2022-08-01T05:51:12;100217.20;;;29.34;27.95
72024;BME280;59889;50.700;5.440;2022-08-01T05:53:37;100221.62;;;28.79;28.02
72024;BME280;59889;50.700;5.440;2022-08-01T05:56:04;100222.78;;;28.87;27.99
72024;BME280;59889;50.700;5.440;2022-08-01T05:58:29;100223.45;;;29.39;27.97
72024;BME280;59889;50.700;5.440;2022-08-01T06:00:55;100220.82;;;28.47;28.54
72024;BME280;59889;50.700;5.440;2022-08-01T06:03:21;100219.62;;;29.03;28.22
72024;BME280;59889;50.700;5.440;2022-08-01T06:05:47;100220.67;;;29.41;28.10
72024;BME280;59889;50.700;5.440;2022-08-01T06:08:13;100218.29;;;28.81;28.21
72024;BME280;59889;50.700;5.440;2022-08-01T06:10:39;100217.81;;;29.42;28.06
72024;BME280;59889;50.700;5.440;2022-08-01T06:13:04;100216.00;;;28.87;28.16
72024;BME280;59889;50.700;5.440;2022-08-01T06:15:30;100216.47;;;28.90;28.14
72024;BME280;59889;50.700;5.440;2022-08-01T06:17:56;100216.60;;;28.83;28.21
72024;BME280;59889;50.700;5.440;2022-08-01T06:20:22;100218.77;;;29.13;28.16
72024;BME280;59889;50.700;5.440;2022-08-01T06:22:48;100217.17;;;28.86;28.18
72024;BME280;59889;50.700;5.440;2022-08-01T06:25:14;100214.75;;;29.07;28.21
72024;BME280;59889;50.700;5.440;2022-08-01T06:27:39;100215.11;;;28.82;28.21
72024;BME280;59889;50.700;5.440;2022-08-01T06:30:06;100213.10;;;29.06;28.22
72024;BME280;59889;50.700;5.440;2022-08-01T06:32:31;100216.60;;;29.10;28.18
72024;BME280;59889;50.700;5.440;2022-08-01T06:34:57;100219.68;;;28.84;28.19
72024;BME280;59889;50.700;5.440;2022-08-01T06:37:23;100221.88;;;28.78;28.25
72024;BME280;59889;50.700;5.440;2022-08-01T06:39:49;100224.31;;;29.07;28.19
72024;BME280;59889;50.700;5.440;2022-08-01T06:42:15;100226.36;;;29.32;28.19
72024;BME280;59889;50.700;5.440;2022-08-01T06:44:40;100226.98;;;29.07;28.19
72024;BME280;59889;50.700;5.440;2022-08-01T06:47:06;100224.59;;;29.08;28.21
72024;BME280;59889;50.700;5.440;2022-08-01T06:49:32;100223.93;;;28.78;28.25
72024;BME280;59889;50.700;5.440;2022-08-01T06:51:58;100227.54;;;28.80;28.25
72024;BME280;59889;50.700;5.440;2022-08-01T06:54:24;100227.64;;;28.98;28.32
72024;BME280;59889;50.700;5.440;2022-08-01T06:56:50;100227.24;;;28.75;28.29
72024;BME280;59889;50.700;5.440;2022-08-01T06:59:15;100226.88;;;29.30;28.22
72024;BME280;59889;50.700;5.440;2022-08-01T07:01:41;100227.12;;;28.98;28.32
72024;BME280;59889;50.700;5.440;2022-08-01T07:04:17;100228.75;;;29.24;28.28
72024;BME280;59889;50.700;5.440;2022-08-01T07:06:33;100231.44;;;29.05;28.25
72024;BME280;59889;50.700;5.440;2022-08-01T07:08:59;100231.35;;;29.22;28.32
72024;BME280;59889;50.700;5.440;2022-08-01T07:11:25;100229.64;;;29.05;28.25
72024;BME280;59889;50.700;5.440;2022-08-01T07:13:50;100228.33;;;28.85;28.21
72024;BME280;59889;50.700;5.440;2022-08-01T07:16:16;100231.42;;;28.86;28.22
72024;BME280;59889;50.700;5.440;2022-08-01T07:18:42;100234.66;;;29.10;28.22
72024;BME280;59889;50.700;5.440;2022-08-01T07:21:08;100233.96;;;29.03;28.26
72024;BME280;59889;50.700;5.440;2022-08-01T07:23:34;100237.36;;;28.99;28.33
72024;BME280;59889;50.700;5.440;2022-08-01T07:26:00;100237.53;;;29.04;28.28
72024;BME280;59889;50.700;5.440;2022-08-01T07:28:26;100239.77;;;29.23;28.32
72024;BME280;59889;50.700;5.440;2022-08-01T07:30:52;100241.52;;;28.76;28.32
72024;BME280;59889;50.700;5.440;2022-08-01T07:33:17;100245.01;;;28.98;28.32
72024;BME280;59889;50.700;5.440;2022-08-01T07:35:43;100244.02;;;28.73;28.35
72024;BME280;59889;50.700;5.440;2022-08-01T07:38:09;100246.88;;;29.01;28.31
72024;BME280;59889;50.700;5.440;2022-08-01T07:40:35;100249.44;;;28.99;28.31
72024;BME280;59889;50.700;5.440;2022-08-01T07:43:01;100253.16;;;29.03;28.28
72024;BME280;59889;50.700;5.440;2022-08-01T07:45:27;100262.43;;;28.97;28.35
72024;BME280;59889;50.700;5.440;2022-08-01T07:47:52;100266.43;;;28.95;28.36
72024;BME280;59889;50.700;5.440;2022-08-01T07:50:18;100268.64;;;28.70;28.38
72024;BME280;59889;50.700;5.440;2022-08-01T07:52:44;100268.41;;;29.27;28.28
72024;BME280;59889;50.700;5.440;2022-08-01T07:55:11;100270.53;;;28.76;28.30
72024;BME280;59889;50.700;5.440;2022-08-01T07:57:37;100269.62;;;28.98;28.30
72024;BME280;59889;50.700;5.440;2022-08-01T08:00:03;100272.36;;;28.67;28.38
72024;BME280;59889;50.700;5.440;2022-08-01T08:02:27;100273.28;;;28.71;28.33
72024;BME280;59889;50.700;5.440;2022-08-01T08:04:58;100272.31;;;28.72;28.30
72024;BME280;59889;50.700;5.440;2022-08-01T08:07:19;100273.60;;;29.01;28.24
72024;BME280;59889;50.700;5.440;2022-08-01T08:09:45;100275.20;;;29.19;28.29
72024;BME280;59889;50.700;5.440;2022-08-01T08:12:11;100277.32;;;28.89;28.35
72024;BME280;59889;50.700;5.440;2022-08-01T08:14:37;100279.38;;;28.97;28.27
72024;BME280;59889;50.700;5.440;2022-08-01T08:17:03;100279.49;;;28.68;28.30
72024;BME280;59889;50.700;5.440;2022-08-01T08:19:30;100281.33;;;28.66;28.31
72024;BME280;59889;50.700;5.440;2022-08-01T08:21:54;100279.79;;;28.99;28.20
72024;BME280;59889;50.700;5.440;2022-08-01T08:24:20;100278.72;;;29.22;28.22
72024;BME280;59889;50.700;5.440;2022-08-01T08:26:46;100275.90;;;28.95;28.23
72024;BME280;59889;50.700;5.440;2022-08-01T08:29:12;100277.26;;;28.84;28.32
72024;BME280;59889;50.700;5.440;2022-08-01T08:31:38;100279.63;;;28.90;28.29
72024;BME280;59889;50.700;5.440;2022-08-01T08:34:04;100282.71;;;28.67;28.27
72024;BME280;59889;50.700;5.440;2022-08-01T08:36:29;100283.31;;;28.76;28.17
72024;BME280;59889;50.700;5.440;2022-08-01T08:38:55;100282.60;;;28.95;28.20
72024;BME280;59889;50.700;5.440;2022-08-01T08:41:21;100282.40;;;28.90;28.26
72024;BME280;59889;50.700;5.440;2022-08-01T08:43:48;100278.45;;;29.11;28.28
72024;BME280;59889;50.700;5.440;2022-08-01T08:46:14;100276.72;;;29.10;28.28
72024;BME280;59889;50.700;5.440;2022-08-01T08:48:39;100280.50;;;28.87;28.25
72024;BME280;59889;50.700;5.440;2022-08-01T08:51:05;100280.45;;;28.86;28.26
72024;BME280;59889;50.700;5.440;2022-08-01T08:53:32;100280.62;;;29.12;28.24
72024;BME280;59889;50.700;5.440;2022-08-01T08:55:57;100279.59;;;29.18;28.17
72024;BME280;59889;50.700;5.440;2022-08-01T08:58:24;100281.01;;;28.94;28.20
72024;BME280;59889;50.700;5.440;2022-08-01T09:00:48;100282.25;;;28.99;28.12
72024;BME280;59889;50.700;5.440;2022-08-01T09:03:14;100282.66;;;28.66;28.21
72024;BME280;59889;50.700;5.440;2022-08-01T09:05:40;100284.65;;;29.17;28.18
72024;BME280;59889;50.700;5.440;2022-08-01T09:08:06;100284.40;;;28.74;28.11
72024;BME280;59889;50.700;5.440;2022-08-01T09:10:32;100285.60;;;28.71;28.15
72024;BME280;59889;50.700;5.440;2022-08-01T09:13:04;100289.96;;;29.05;28.03
72024;BME280;59889;50.700;5.440;2022-08-01T09:17:49;100294.92;;;28.78;28.05
72024;BME280;59889;50.700;5.440;2022-08-01T09:20:22;100295.96;;;29.23;28.06
72024;BME280;59889;50.700;5.440;2022-08-01T09:22:41;100295.92;;;29.30;27.98
72024;BME280;59889;50.700;5.440;2022-08-01T09:25:09;100296.28;;;28.82;27.99
72024;BME280;59889;50.700;5.440;2022-08-01T09:27:33;100294.49;;;28.86;27.94
72024;BME280;59889;50.700;5.440;2022-08-01T09:30:08;100292.73;;;29.26;28.02
72024;BME280;59889;50.700;5.440;2022-08-01T09:32:24;100291.01;;;28.83;27.96
72024;BME280;59889;50.700;5.440;2022-08-01T09:34:50;100293.60;;;29.01;28.02
72024;BME280;59889;50.700;5.440;2022-08-01T09:37:22;100291.71;;;28.83;27.98
72024;BME280;59889;50.700;5.440;2022-08-01T09:39:41;100292.70;;;29.28;27.75
72024;BME280;59889;50.700;5.440;2022-08-01T09:42:19;100294.30;;;28.97;27.81
72024;BME280;59889;50.700;5.440;2022-08-01T09:44:39;100297.96;;;29.21;27.81
72024;BME280;59889;50.700;5.440;2022-08-01T09:46:59;100300.91;;;29.22;27.80
72024;BME280;59889;50.700;5.440;2022-08-01T09:49:29;100296.76;;;29.22;27.79
72024;BME280;59889;50.700;5.440;2022-08-01T09:51:51;100300.57;;;29.01;27.75
72024;BME280;59889;50.700;5.440;2022-08-01T09:54:27;100302.87;;;29.09;27.90
72024;BME280;59889;50.700;5.440;2022-08-01T09:56:42;100306.07;;;28.89;27.88
72024;BME280;59889;50.700;5.440;2022-08-01T09:59:09;100308.05;;;29.22;27.79
72024;BME280;59889;50.700;5.440;2022-08-01T10:01:44;100306.60;;;29.45;27.80
72024;BME280;59889;50.700;5.440;2022-08-01T10:04:05;100306.69;;;29.25;27.75
72024;BME280;59889;50.700;5.440;2022-08-01T10:06:26;100303.26;;;29.50;27.74
72024;BME280;59889;50.700;5.440;2022-08-01T10:08:52;100301.33;;;29.05;27.74
72024;BME280;59889;50.700;5.440;2022-08-01T10:11:18;100296.74;;;28.91;27.87
72024;BME280;59889;50.700;5.440;2022-08-01T10:13:44;100301.32;;;29.25;27.80
72024;BME280;59889;50.700;5.440;2022-08-01T10:16:10;100299.92;;;29.22;27.83
72024;BME280;59889;50.700;5.440;2022-08-01T10:18:35;100302.80;;;29.46;27.83
72024;BME280;59889;50.700;5.440;2022-08-01T10:21:02;100301.82;;;29.29;27.77
72024;BME280;59889;50.700;5.440;2022-08-01T10:23:29;100301.88;;;28.95;27.87
72024;BME280;59889;50.700;5.440;2022-08-01T10:25:54;100296.45;;;29.08;27.98
72024;BME280;59889;50.700;5.440;2022-08-01T10:28:21;100298.12;;;28.95;27.89
72024;BME280;59889;50.700;5.440;2022-08-01T10:30:45;100295.65;;;29.15;27.93
72024;BME280;59889;50.700;5.440;2022-08-01T10:33:11;100296.45;;;29.09;27.99
72024;BME280;59889;50.700;5.440;2022-08-01T10:35:37;100297.10;;;28.84;28.01
72024;BME280;59889;50.700;5.440;2022-08-01T10:38:03;100295.66;;;28.85;28.02
72024;BME280;59889;50.700;5.440;2022-08-01T10:40:28;100297.94;;;28.98;27.88
72024;BME280;59889;50.700;5.440;2022-08-01T10:42:54;100295.25;;;29.40;27.95
72024;BME280;59889;50.700;5.440;2022-08-01T10:45:19;100291.15;;;28.93;27.94
72024;BME280;59889;50.700;5.440;2022-08-01T10:47:51;100287.30;;;28.95;27.90
72024;BME280;59889;50.700;5.440;2022-08-01T10:50:17;100286.19;;;29.12;27.96
72024;BME280;59889;50.700;5.440;2022-08-01T10:52:37;100283.09;;;28.86;27.99
72024;BME280;59889;50.700;5.440;2022-08-01T10:55:05;100279.71;;;29.19;27.90
72024;BME280;59889;50.700;5.440;2022-08-01T10:57:42;100282.56;;;29.15;27.95
72024;BME280;59889;50.700;5.440;2022-08-01T10:59:54;100287.46;;;28.94;27.93
72024;BME280;59889;50.700;5.440;2022-08-01T11:02:27;100286.16;;;29.18;27.92
72024;BME280;59889;50.700;5.440;2022-08-01T11:04:53;100288.34;;;29.11;27.99
72024;BME280;59889;50.700;5.440;2022-08-01T11:07:16;100285.97;;;28.94;27.93
72024;BME280;59889;50.700;5.440;2022-08-01T11:09:40;100282.64;;;28.93;27.95
72024;BME280;59889;50.700;5.440;2022-08-01T11:12:07;100279.18;;;29.13;27.97
72024;BME280;59889;50.700;5.440;2022-08-01T11:14:30;100275.71;;;28.94;27.93
72024;BME280;59889;50.700;5.440;2022-08-01T11:16:55;100278.20;;;28.74;28.11
72024;BME280;59889;50.700;5.440;2022-08-01T11:19:22;100276.88;;;28.99;28.14
72024;BME280;59889;50.700;5.440;2022-08-01T11:21:58;100277.93;;;29.06;28.05
72024;BME280;59889;50.700;5.440;2022-08-01T11:24:13;100278.94;;;28.75;28.15
72024;BME280;59889;50.700;5.440;2022-08-01T11:26:39;100283.31;;;28.76;28.12
72024;BME280;59889;50.700;5.440;2022-08-01T11:29:13;100282.23;;;28.61;28.27
72024;BME280;59889;50.700;5.440;2022-08-01T11:31:32;100283.02;;;28.81;28.07
72024;BME280;59889;50.700;5.440;2022-08-01T11:33:57;100279.59;;;29.04;28.08
72024;BME280;59889;50.700;5.440;2022-08-01T11:36:22;100285.34;;;28.97;28.15
72024;BME280;59889;50.700;5.440;2022-08-01T11:38:50;100288.60;;;28.72;28.17
72024;BME280;59889;50.700;5.440;2022-08-01T11:41:16;100290.72;;;28.80;28.08
72024;BME280;59889;50.700;5.440;2022-08-01T11:46:06;100289.50;;;29.11;28.00
72024;BME280;59889;50.700;5.440;2022-08-01T11:48:31;100287.72;;;28.92;28.21
72024;BME280;59889;50.700;5.440;2022-08-01T11:50:57;100289.42;;;28.81;28.07
72024;BME280;59889;50.700;5.440;2022-08-01T11:53:23;100291.66;;;28.77;28.12
72024;BME280;59889;50.700;5.440;2022-08-01T11:55:51;100290.80;;;28.70;28.19
72024;BME280;59889;50.700;5.440;2022-08-01T11:58:20;100292.05;;;28.88;28.24
72024;BME280;59889;50.700;5.440;2022-08-01T12:00:41;100296.26;;;28.75;28.15
72024;BME280;59889;50.700;5.440;2022-08-01T12:03:08;100291.19;;;28.61;28.27
72024;BME280;59889;50.700;5.440;2022-08-01T12:05:34;100294.52;;;28.60;28.30
72024;BME280;59889;50.700;5.440;2022-08-01T12:07:59;100292.76;;;28.70;28.20
72024;BME280;59889;50.700;5.440;2022-08-01T12:10:26;100293.08;;;29.03;28.09
72024;BME280;59889;50.700;5.440;2022-08-01T12:12:51;100292.51;;;28.80;28.05
72024;BME280;59889;50.700;5.440;2022-08-01T12:15:17;100288.42;;;28.99;28.14
72024;BME280;59889;50.700;5.440;2022-08-01T12:17:43;100288.62;;;28.72;28.16
72024;BME280;59889;50.700;5.440;2022-08-01T12:20:10;100287.76;;;28.75;28.13
72024;BME280;59889;50.700;5.440;2022-08-01T12:22:33;100285.36;;;29.07;28.06
72024;BME280;59889;50.700;5.440;2022-08-01T12:25:04;100288.89;;;28.73;28.15
72024;BME280;59889;50.700;5.440;2022-08-01T12:27:27;100286.35;;;29.04;28.08
72024;BME280;59889;50.700;5.440;2022-08-01T12:29:51;100287.44;;;28.97;28.15
72024;BME280;59889;50.700;5.440;2022-08-01T12:32:25;100285.99;;;28.58;28.30
72024;BME280;59889;50.700;5.440;2022-08-01T12:34:43;100288.69;;;29.07;28.05
72024;BME280;59889;50.700;5.440;2022-08-01T12:37:08;100289.58;;;28.80;28.06
72024;BME280;59889;50.700;5.440;2022-08-01T12:39:35;100291.24;;;28.79;28.09
72024;BME280;59889;50.700;5.440;2022-08-01T12:42:01;100288.65;;;28.95;28.18
72024;BME280;59889;50.700;5.440;2022-08-01T12:44:27;100287.58;;;28.80;28.09
72024;BME280;59889;50.700;5.440;2022-08-01T12:46:52;100288.22;;;28.69;28.18